Time;durP1;ratioP1;P1;durP2;ratioP2;P2;SDS_P1;SDS_P2;PMS_P1;PMS_P2;Temp;Humidity;BMP_temperature;BMP_pressure;BME280_temperature;BME280_humidity;BME280_pressure;Samples;Min_cycle;Max_cycle;Signal;HPM_P1;HPM_P2
2023/10/12 00:00:24;;;;;;;3.88;1.80;;;26.10;99.90;;;;;;5090226;28;20202;-82
2023/10/12 00:02:52;;;;;;;8.07;1.70;;;26.20;99.90;;;;;;5082800;28;20200;-83
2023/10/12 00:05:26;;;;;;;4.20;1.90;;;26.40;99.90;;;;;;5077160;28;20203;-85
2023/10/12 00:08:01;;;;;;;6.38;2.08;;;26.50;99.90;;;;;;5074400;28;20244;-85
2023/10/12 00:10:40;;;;;;;4.57;1.90;;;26.70;99.90;;;;;;5072186;28;20701;-86
2023/10/12 00:13:12;;;;;;;5.00;1.83;;;26.90;99.90;;;;;;5073418;28;20206;-87
2023/10/12 00:15:45;;;;;;;6.95;1.77;;;27.10;99.90;;;;;;5072362;28;20288;-85
2023/10/12 00:18:17;;;;;;;7.65;1.98;;;27.20;99.90;;;;;;5074599;28;20245;-86
2023/10/12 00:20:51;;;;;;;5.22;1.85;;;27.40;99.90;;;;;;5065948;28;20281;-85
2023/10/12 00:23:26;;;;;;;8.13;2.20;;;27.50;99.90;;;;;;5075515;28;20230;-85
2023/10/12 00:25:59;;;;;;;6.53;2.08;;;27.50;99.90;;;;;;5074276;28;20274;-89
2023/10/12 00:28:38;;;;;;;5.07;2.00;;;27.40;99.90;;;;;;5084642;28;20208;-81
2023/10/12 00:31:17;;;;;;;8.07;1.80;;;27.40;99.90;;;;;;5081777;28;20547;-91
2023/10/12 00:33:50;;;;;;;4.47;2.00;;;27.60;99.90;;;;;;5075442;28;20259;-88
2023/10/12 00:36:24;;;;;;;5.63;2.10;;;27.70;99.90;;;;;;5084111;28;20255;-89
2023/10/12 00:38:59;;;;;;;7.72;2.55;;;27.70;99.90;;;;;;5081337;28;20204;-88
2023/10/12 00:41:35;;;;;;;8.70;2.08;;;27.90;99.90;;;;;;5067193;28;20200;-88
2023/10/12 00:44:10;;;;;;;9.15;2.55;;;27.90;99.90;;;;;;5071759;28;20221;-89
2023/10/12 00:46:58;;;;;;;9.65;2.50;;;28.10;99.90;;;;;;5075004;28;20192;-89
2023/10/12 00:49:32;;;;;;;6.72;2.50;;;28.10;99.90;;;;;;5073285;28;20227;-90
2023/10/12 00:52:15;;;;;;;9.10;2.70;;;28.20;99.90;;;;;;5074393;28;20185;-89
2023/10/12 00:54:55;;;;;;;8.48;2.63;;;28.10;99.90;;;;;;5055325;28;20273;-87
2023/10/12 00:57:26;;;;;;;7.80;2.80;;;28.10;99.90;;;;;;5068545;28;20256;-89
2023/10/12 00:59:57;;;;;;;7.78;2.90;;;28.30;99.90;;;;;;5061230;28;20199;-89
2023/10/12 01:02:39;;;;;;;8.82;2.58;;;28.40;99.90;;;;;;5053133;28;20191;-89
2023/10/12 01:05:10;;;;;;;11.43;3.00;;;28.60;99.90;;;;;;5053483;28;20205;-89
2023/10/12 01:07:42;;;;;;;4.38;1.92;;;28.80;99.90;;;;;;5052724;28;20203;-90
2023/10/12 01:10:17;;;;;;;6.18;1.80;;;28.80;93.70;;;;;;5061958;28;20223;-89
2023/10/12 01:12:47;;;;;;;10.48;1.90;;;28.90;90.10;;;;;;5072154;28;20251;-90
2023/10/12 01:15:18;;;;;;;5.82;1.77;;;29.10;86.60;;;;;;5073704;28;20223;-91
2023/10/12 01:17:51;;;;;;;4.85;1.67;;;29.30;86.70;;;;;;5073248;28;20192;-91
2023/10/12 01:20:26;;;;;;;5.43;1.95;;;29.40;86.00;;;;;;5072806;28;20230;-90
2023/10/12 01:22:59;;;;;;;4.95;1.90;;;29.60;90.80;;;;;;5072910;28;20195;-90
2023/10/12 01:25:34;;;;;;;12.90;2.50;;;29.60;88.50;;;;;;5071589;28;20227;-87
2023/10/12 01:28:10;;;;;;;5.28;1.80;;;29.70;87.20;;;;;;5085422;28;20195;-87
2023/10/12 01:30:44;;;;;;;5.15;1.70;;;29.70;89.90;;;;;;5087815;28;20194;-81
2023/10/12 01:33:16;;;;;;;5.53;1.70;;;29.60;84.40;;;;;;5083799;28;20228;-87
2023/10/12 01:35:50;;;;;;;7.80;2.20;;;29.70;82.30;;;;;;5072637;28;20223;-87
2023/10/12 01:38:23;;;;;;;2.85;1.60;;;29.90;87.10;;;;;;5074508;28;20192;-88
2023/10/12 01:40:56;;;;;;;3.75;1.92;;;29.90;84.60;;;;;;5079384;28;20643;-86
2023/10/12 01:43:28;;;;;;;7.22;3.15;;;30.00;85.10;;;;;;5072149;28;20316;-89
2023/10/12 01:46:06;;;;;;;8.18;4.00;;;30.10;90.80;;;;;;5075022;28;20207;-86
2023/10/12 01:48:37;;;;;;;8.32;3.85;;;30.00;91.60;;;;;;5066552;28;20717;-87
2023/10/12 01:51:15;;;;;;;6.32;2.95;;;30.10;91.90;;;;;;5051754;28;20288;-87
2023/10/12 01:53:49;;;;;;;6.95;2.47;;;30.20;90.50;;;;;;5066928;28;20195;-88
2023/10/12 01:56:20;;;;;;;6.05;2.10;;;30.20;91.00;;;;;;5067738;28;20227;-86
2023/10/12 01:58:51;;;;;;;4.18;1.85;;;30.20;87.90;;;;;;5051010;28;20200;-86
2023/10/12 02:01:24;;;;;;;5.65;2.22;;;30.20;87.00;;;;;;5058488;28;20228;-87
2023/10/12 02:03:56;;;;;;;6.13;2.60;;;30.20;88.50;;;;;;5069385;28;20192;-86
2023/10/12 02:06:28;;;;;;;9.00;2.40;;;30.10;90.60;;;;;;5071398;28;20196;-86
2023/10/12 02:09:08;;;;;;;13.43;3.03;;;29.70;92.30;;;;;;5071237;28;20204;-86
2023/10/12 02:11:43;;;;;;;11.65;2.83;;;29.50;94.10;;;;;;5071137;28;20235;-85
2023/10/12 02:14:22;;;;;;;10.18;2.95;;;29.30;95.90;;;;;;5055331;28;20203;-86
2023/10/12 02:16:56;;;;;;;5.70;2.40;;;29.00;97.50;;;;;;5071551;28;20208;-85
2023/10/12 02:19:41;;;;;;;8.00;2.15;;;29.00;98.60;;;;;;5076138;28;20283;-87
2023/10/12 02:22:20;;;;;;;8.18;2.35;;;29.00;98.10;;;;;;5074477;28;20278;-87
2023/10/12 02:25:01;;;;;;;8.50;2.85;;;29.10;98.00;;;;;;5076172;28;20651;-86
2023/10/12 02:27:33;;;;;;;10.73;2.90;;;29.20;97.00;;;;;;5076471;28;20206;-87
2023/10/12 02:30:07;;;;;;;10.40;2.80;;;29.20;96.90;;;;;;5075564;28;20564;-86
2023/10/12 02:32:46;;;;;;;13.52;3.47;;;29.30;96.20;;;;;;5077134;28;20234;-80
2023/10/12 02:35:19;;;;;;;9.25;2.97;;;29.40;96.10;;;;;;5083574;28;20195;-87
2023/10/12 02:37:50;;;;;;;10.88;2.47;;;29.40;97.10;;;;;;5077858;28;20819;-86
2023/10/12 02:40:26;;;;;;;10.50;2.97;;;29.40;96.90;;;;;;5069844;28;20609;-87
2023/10/12 02:42:59;;;;;;;8.98;2.50;;;29.20;97.10;;;;;;5074669;28;20188;-86
2023/10/12 02:45:33;;;;;;;7.53;2.58;;;29.30;98.00;;;;;;5073978;28;20663;-87
2023/10/12 02:48:12;;;;;;;10.80;2.70;;;29.40;97.30;;;;;;5056198;28;20203;-86
2023/10/12 02:50:57;;;;;;;10.90;2.42;;;29.50;97.00;;;;;;5075388;28;20279;-86
2023/10/12 02:53:30;;;;;;;13.23;2.60;;;29.40;97.40;;;;;;5074848;28;20199;-87
2023/10/12 02:56:05;;;;;;;9.13;2.70;;;29.50;97.60;;;;;;5062093;28;20247;-86
2023/10/12 02:58:46;;;;;;;7.65;2.70;;;29.70;97.50;;;;;;5069862;28;20196;-86
2023/10/12 03:04:29;;;;;;;10.00;2.67;;;30.10;93.90;;;;;;5098098;28;20199;-91
2023/10/12 03:09:55;;;;;;;10.45;2.60;;;30.30;92.40;;;;;;5084794;28;20613;-86
2023/10/12 03:12:34;;;;;;;9.50;2.20;;;30.40;91.80;;;;;;5065783;28;20219;-86
2023/10/12 03:15:12;;;;;;;13.40;3.42;;;30.60;91.40;;;;;;5077583;28;20656;-87
2023/10/12 03:17:45;;;;;;;10.18;2.83;;;30.60;90.70;;;;;;5056355;28;20228;-86
2023/10/12 03:20:22;;;;;;;8.77;2.60;;;30.80;90.90;;;;;;5070187;28;20203;-86
2023/10/12 03:22:53;;;;;;;7.43;2.45;;;30.80;91.00;;;;;;5076698;28;20200;-87
2023/10/12 03:25:38;;;;;;;10.48;2.60;;;30.80;89.40;;;;;;5076708;28;20291;-87
2023/10/12 03:28:17;;;;;;;7.90;2.15;;;31.00;88.10;;;;;;5077637;28;20533;-87
2023/10/12 03:30:53;;;;;;;11.43;2.30;;;30.90;87.60;;;;;;5079645;28;20195;-86
2023/10/12 03:33:34;;;;;;;10.48;2.47;;;31.00;88.50;;;;;;5093284;28;20206;-87
2023/10/12 03:36:17;;;;;;;1.60;1.00;;;31.20;79.20;;;;;;5082076;28;20204;-87
2023/10/12 03:38:58;;;;;;;1.75;0.98;;;31.70;53.10;;;;;;5075996;28;20609;-85
2023/10/12 03:44:24;;;;;;;3.65;1.10;;;32.70;42.10;;;;;;5093412;28;20199;-87
2023/10/12 03:47:00;;;;;;;1.90;0.90;;;33.20;39.20;;;;;;5071280;28;20200;-88
2023/10/12 03:49:43;;;;;;;1.92;0.90;;;33.40;36.70;;;;;;5056621;28;20243;-87
2023/10/12 03:52:17;;;;;;;0.88;0.80;;;33.60;36.30;;;;;;5056554;28;20192;-86
2023/10/12 03:55:16;;;;;;;1.00;0.77;;;33.70;35.50;;;;;;5061232;28;20191;-88
2023/10/12 03:57:51;;;;;;;1.77;0.98;;;33.90;35.50;;;;;;5071073;28;20259;-85
2023/10/12 04:00:32;;;;;;;2.40;0.82;;;34.00;34.60;;;;;;5077843;28;20260;-88
2023/10/12 04:03:12;;;;;;;2.17;0.90;;;33.90;33.40;;;;;;5071912;28;20192;-86
2023/10/12 04:05:56;;;;;;;3.28;0.82;;;34.00;33.70;;;;;;5074301;28;20188;-86
2023/10/12 04:11:48;;;;;;;0.95;0.82;;;34.20;32.90;;;;;;5072718;28;20263;-84
2023/10/12 04:14:22;;;;;;;0.82;0.82;;;34.20;32.50;;;;;;5076201;28;20195;-86
2023/10/12 04:17:17;;;;;;;0.70;0.70;;;34.30;32.00;;;;;;5075815;28;20666;-87
2023/10/12 04:20:07;;;;;;;1.63;0.88;;;34.50;32.20;;;;;;5075731;28;20287;-85
2023/10/12 04:23:13;;;;;;;0.82;0.82;;;34.40;31.20;;;;;;5074835;28;20196;-86
2023/10/12 04:25:46;;;;;;;2.92;1.00;;;34.50;31.40;;;;;;5075409;28;20200;-86
2023/10/12 04:28:24;;;;;;;3.67;0.98;;;34.50;31.10;;;;;;5076909;28;20191;-86
2023/10/12 04:34:03;;;;;;;4.35;1.33;;;34.50;31.70;;;;;;5081939;28;20214;-83
2023/10/12 04:36:35;;;;;;;1.40;0.90;;;34.50;31.80;;;;;;5093888;28;20238;-85
2023/10/12 04:39:24;;;;;;;1.70;0.93;;;34.50;31.10;;;;;;5091189;28;20207;-86
2023/10/12 04:42:04;;;;;;;1.60;1.10;;;34.70;31.50;;;;;;5093040;28;20191;-85
2023/10/12 04:44:39;;;;;;;1.60;0.90;;;34.70;30.70;;;;;;5079598;28;20196;-85
2023/10/12 04:47:12;;;;;;;0.90;0.68;;;34.80;30.70;;;;;;5076105;28;20278;-86
2023/10/12 04:49:57;;;;;;;2.38;1.20;;;34.90;31.70;;;;;;5078352;28;20227;-85
2023/10/12 04:52:37;;;;;;;3.42;1.60;;;35.00;34.00;;;;;;5095434;28;20195;-86
2023/10/12 04:55:19;;;;;;;5.60;1.40;;;34.80;39.70;;;;;;5095326;28;20191;-86
2023/10/12 05:00:48;;;;;;;3.65;1.13;;;34.30;44.30;;;;;;5080051;28;20661;-85
2023/10/12 05:03:25;;;;;;;1.60;0.90;;;34.40;35.70;;;;;;5073640;28;20710;-86
2023/10/12 05:06:04;;;;;;;3.92;1.10;;;34.60;31.80;;;;;;5072866;28;20196;-86
2023/10/12 05:08:35;;;;;;;5.10;0.98;;;34.70;30.70;;;;;;5083816;28;20574;-86
2023/10/12 05:11:09;;;;;;;2.75;0.88;;;35.00;30.20;;;;;;5092912;28;20231;-85
2023/10/12 05:13:43;;;;;;;3.95;1.10;;;35.20;29.80;;;;;;5096519;28;20213;-85
2023/10/12 05:16:16;;;;;;;2.80;0.90;;;35.40;29.50;;;;;;5089422;28;20216;-86
2023/10/12 05:18:59;;;;;;;1.73;1.25;;;35.50;29.50;;;;;;5073058;28;20280;-85
2023/10/12 05:21:32;;;;;;;6.35;1.15;;;35.60;29.00;;;;;;5072273;28;20196;-85
2023/10/12 05:24:02;;;;;;;4.20;1.02;;;35.60;28.60;;;;;;5072272;28;20199;-86
2023/10/12 05:26:35;;;;;;;1.70;0.95;;;35.60;29.40;;;;;;5072964;28;20204;-86
2023/10/12 05:29:34;;;;;;;2.40;1.13;;;35.80;28.60;;;;;;5073899;28;20243;-85
2023/10/12 05:32:18;;;;;;;3.35;0.82;;;36.00;28.60;;;;;;5071416;28;20279;-86
2023/10/12 05:34:52;;;;;;;3.33;0.90;;;36.20;28.60;;;;;;5063869;28;20200;-85
2023/10/12 05:37:37;;;;;;;1.70;1.05;;;36.40;28.50;;;;;;5067178;28;20224;-85
2023/10/12 05:40:13;;;;;;;2.42;0.80;;;36.70;28.40;;;;;;5052376;28;20201;-85
2023/10/12 05:42:46;;;;;;;3.05;1.00;;;36.50;27.80;;;;;;5066693;28;20231;-86
2023/10/12 05:45:21;;;;;;;2.20;1.00;;;36.70;28.00;;;;;;5072719;28;20684;-85
2023/10/12 05:47:53;;;;;;;1.98;0.88;;;37.00;27.90;;;;;;5075617;28;20195;-85
2023/10/12 05:50:26;;;;;;;1.33;0.80;;;37.20;27.90;;;;;;5070096;28;20204;-86
2023/10/12 05:52:59;;;;;;;1.63;0.82;;;37.60;27.70;;;;;;5071191;28;20605;-85
2023/10/12 05:55:33;;;;;;;2.15;1.00;;;37.90;28.10;;;;;;5074208;28;20226;-85
2023/10/12 05:58:11;;;;;;;0.90;0.85;;;38.30;28.20;;;;;;5071259;28;20308;-85
2023/10/12 06:00:44;;;;;;;1.42;0.95;;;38.50;27.20;;;;;;5071621;28;20633;-86
2023/10/12 06:03:20;;;;;;;3.63;0.90;;;38.70;27.00;;;;;;5072468;28;20200;-85
2023/10/12 06:05:51;;;;;;;3.05;1.00;;;39.00;26.70;;;;;;5071022;28;20203;-86
2023/10/12 06:08:26;;;;;;;7.32;2.45;;;39.10;26.80;;;;;;5071049;28;20200;-86
2023/10/12 06:10:58;;;;;;;9.52;2.50;;;38.80;37.70;;;;;;5070064;28;20723;-84
2023/10/12 06:13:40;;;;;;;8.00;2.63;;;37.80;41.70;;;;;;5066292;28;20200;-86
2023/10/12 06:16:14;;;;;;;9.05;2.30;;;35.90;45.00;;;;;;5062892;28;20601;-84
2023/10/12 06:18:49;;;;;;;8.73;2.75;;;34.90;47.00;;;;;;5051451;28;20200;-86
2023/10/12 06:21:20;;;;;;;7.28;2.42;;;33.40;50.20;;;;;;5051476;28;20564;-85
2023/10/12 06:23:53;;;;;;;8.70;2.40;;;33.20;50.90;;;;;;5055531;28;20201;-85
2023/10/12 06:26:34;;;;;;;7.13;2.70;;;32.80;50.60;;;;;;5050898;28;20188;-84
2023/10/12 06:29:07;;;;;;;7.45;2.63;;;32.20;51.90;;;;;;5055643;28;20217;-88
2023/10/12 06:31:38;;;;;;;8.73;2.58;;;31.50;53.60;;;;;;5064345;28;20557;-88
2023/10/12 06:34:12;;;;;;;12.35;2.53;;;31.20;54.70;;;;;;5088016;28;20206;-88
2023/10/12 06:36:43;;;;;;;10.48;2.60;;;30.90;56.10;;;;;;5100075;28;20226;-87
2023/10/12 06:42:26;;;;;;;9.20;2.70;;;30.60;58.50;;;;;;5090311;28;20198;-88
2023/10/12 06:44:58;;;;;;;8.00;2.67;;;31.40;56.30;;;;;;5072336;28;20203;-88
2023/10/12 06:47:43;;;;;;;8.43;2.80;;;31.60;56.30;;;;;;5072260;28;20559;-87
2023/10/12 06:50:18;;;;;;;9.93;2.50;;;31.60;55.70;;;;;;5080220;28;20720;-88
2023/10/12 06:52:57;;;;;;;9.07;2.53;;;31.10;55.10;;;;;;5093432;28;20195;-89
2023/10/12 06:55:31;;;;;;;10.57;2.28;;;30.90;55.40;;;;;;5074911;28;20682;-88
2023/10/12 06:58:14;;;;;;;6.25;2.13;;;31.40;54.50;;;;;;5068265;28;20310;-87
2023/10/12 07:03:28;;;;;;;5.05;2.00;;;31.70;52.60;;;;;;5055471;28;20570;-87
2023/10/12 07:05:57;;;;;;;6.43;2.92;;;31.90;52.10;;;;;;5069574;28;20202;-87
2023/10/12 07:08:29;;;;;;;7.25;2.50;;;32.20;51.40;;;;;;5094984;28;20207;-88
2023/10/12 07:11:04;;;;;;;7.78;2.33;;;32.30;50.90;;;;;;5096789;28;20235;-88
2023/10/12 07:13:39;;;;;;;7.22;2.10;;;32.20;50.60;;;;;;5074377;28;20196;-87
2023/10/12 07:16:10;;;;;;;8.55;2.13;;;31.80;50.70;;;;;;5075232;28;20310;-87
2023/10/12 07:18:43;;;;;;;7.60;2.20;;;31.60;51.50;;;;;;5073873;28;20734;-87
2023/10/12 07:21:21;;;;;;;7.70;2.13;;;31.10;53.00;;;;;;5061395;28;20200;-89
2023/10/12 07:23:53;;;;;;;6.28;2.15;;;30.60;53.30;;;;;;5080951;28;20210;-89
2023/10/12 07:26:30;;;;;;;6.75;2.10;;;30.30;54.30;;;;;;5095208;28;20204;-89
2023/10/12 07:29:16;;;;;;;6.35;2.40;;;29.90;55.40;;;;;;5095821;28;20203;-88
2023/10/12 07:31:48;;;;;;;6.80;2.42;;;29.50;57.10;;;;;;5062083;28;20211;-89
2023/10/12 07:34:23;;;;;;;5.57;2.38;;;29.20;57.50;;;;;;5055558;28;20239;-88
2023/10/12 07:36:57;;;;;;;7.85;2.40;;;29.00;58.20;;;;;;5057191;28;20555;-89
2023/10/12 07:39:38;;;;;;;7.68;2.42;;;28.90;58.20;;;;;;5093028;28;20197;-86
2023/10/12 07:42:14;;;;;;;6.90;2.30;;;28.70;58.60;;;;;;5077304;28;20272;-88
2023/10/12 07:44:54;;;;;;;8.30;2.45;;;28.60;58.70;;;;;;5074214;28;20547;-86
2023/10/12 07:47:31;;;;;;;6.07;2.40;;;28.40;59.00;;;;;;5058127;28;20211;-87
2023/10/12 07:50:10;;;;;;;6.75;2.40;;;28.30;59.70;;;;;;5078752;28;20696;-88
2023/10/12 07:52:48;;;;;;;6.45;2.65;;;28.20;59.70;;;;;;5075078;28;20428;-86
2023/10/12 07:55:19;;;;;;;8.68;2.63;;;28.00;60.80;;;;;;5075432;28;20200;-86
2023/10/12 07:57:52;;;;;;;9.23;2.60;;;27.90;62.10;;;;;;5077131;28;20215;-88
2023/10/12 08:00:34;;;;;;;11.77;2.72;;;27.80;63.00;;;;;;5067756;28;20540;-86
2023/10/12 08:03:17;;;;;;;8.10;2.63;;;27.70;64.20;;;;;;5055545;28;20636;-88
2023/10/12 08:06:06;;;;;;;7.03;2.80;;;27.70;64.40;;;;;;5073739;28;20550;-87
2023/10/12 08:08:38;;;;;;;8.98;2.80;;;27.50;64.50;;;;;;5074001;28;20253;-88
2023/10/12 08:11:18;;;;;;;7.93;2.50;;;27.40;65.60;;;;;;5062510;28;20728;-88
2023/10/12 08:13:54;;;;;;;6.95;2.50;;;27.40;64.70;;;;;;5075402;28;20196;-89
2023/10/12 08:16:37;;;;;;;6.90;1.70;;;27.40;63.60;;;;;;5074248;28;20200;-87
2023/10/12 08:19:28;;;;;;;6.88;2.20;;;27.30;57.60;;;;;;5072625;28;20691;-88
2023/10/12 08:22:09;;;;;;;5.78;1.95;;;27.40;57.80;;;;;;5070922;28;20188;-88
2023/10/12 08:24:39;;;;;;;3.92;1.95;;;27.40;55.90;;;;;;5068769;28;20242;-86
2023/10/12 08:27:12;;;;;;;2.83;1.73;;;27.40;56.50;;;;;;5062109;28;20200;-87
2023/10/12 08:30:13;;;;;;;4.15;1.50;;;27.50;51.90;;;;;;5054701;28;20573;-87
2023/10/12 08:32:56;;;;;;;3.90;1.80;;;27.50;50.90;;;;;;5076911;28;20199;-87
2023/10/12 08:35:39;;;;;;;4.82;1.80;;;27.60;53.30;;;;;;5076318;28;20203;-87
2023/10/12 08:38:25;;;;;;;5.38;2.20;;;27.60;54.10;;;;;;5075570;28;20313;-88
2023/10/12 08:43:48;;;;;;;5.07;2.20;;;27.60;56.00;;;;;;5054011;28;20338;-88
2023/10/12 08:46:56;;;;;;;6.72;2.25;;;27.50;56.50;;;;;;5059037;28;20196;-87
2023/10/12 08:49:35;;;;;;;5.00;2.20;;;27.50;56.90;;;;;;5079800;28;20666;-87
2023/10/12 08:52:18;;;;;;;4.80;1.90;;;27.50;55.80;;;;;;5062188;28;20652;-86
2023/10/12 08:54:53;;;;;;;5.95;1.80;;;27.40;53.40;;;;;;5055511;28;20279;-88
2023/10/12 08:57:35;;;;;;;4.88;2.38;;;27.50;53.10;;;;;;5063690;28;20234;-87
2023/10/12 09:03:00;;;;;;;11.15;6.70;;;27.60;52.80;;;;;;5071960;28;20274;-87
2023/10/12 09:05:32;;;;;;;12.27;6.22;;;27.70;50.70;;;;;;5072306;28;20560;-86
2023/10/12 09:08:39;;;;;;;13.43;2.90;;;27.70;52.00;;;;;;5072594;28;20245;-86
2023/10/12 09:11:02;;;;;;;17.50;2.70;;;27.40;57.40;;;;;;5056840;28;20231;-86
2023/10/12 09:13:35;;;;;;;16.27;2.50;;;26.60;66.20;;;;;;5052784;28;20200;-87
2023/10/12 09:16:09;;;;;;;9.45;2.72;;;25.70;85.10;;;;;;5058855;28;20255;-86
2023/10/12 09:18:46;;;;;;;7.43;2.35;;;24.80;93.10;;;;;;5067810;28;20223;-87
2023/10/12 09:21:28;;;;;;;13.15;3.72;;;24.40;96.30;;;;;;5072761;28;20249;-84
2023/10/12 09:24:08;;;;;;;9.70;3.70;;;24.20;99.90;;;;;;5064694;28;20193;-85
2023/10/12 09:26:46;;;;;;;9.98;3.35;;;24.20;99.90;;;;;;5062412;28;20593;-86
2023/10/12 09:32:19;;;;;;;13.40;5.05;;;24.10;99.90;;;;;;5062992;28;20276;-87
2023/10/12 09:35:11;;;;;;;7.03;3.35;;;24.30;99.90;;;;;;5089558;28;20218;-86
2023/10/12 09:37:51;;;;;;;12.85;3.92;;;24.30;99.90;;;;;;5091637;28;20207;-84
2023/10/12 09:40:29;;;;;;;11.75;2.45;;;24.30;99.90;;;;;;5095510;28;20180;-87
2023/10/12 09:43:06;;;;;;;7.93;2.20;;;24.30;99.90;;;;;;5078576;28;20207;-87
2023/10/12 09:45:41;;;;;;;13.68;2.58;;;24.30;99.90;;;;;;5062553;28;20199;-87
2023/10/12 09:48:19;;;;;;;9.40;2.47;;;24.30;99.90;;;;;;5076923;28;20286;-88
2023/10/12 09:50:58;;;;;;;7.03;3.38;;;24.40;99.90;;;;;;5052039;28;20288;-87
2023/10/12 09:53:37;;;;;;;6.85;3.00;;;24.40;99.90;;;;;;5073548;28;20199;-87
2023/10/12 09:56:15;;;;;;;9.35;3.40;;;24.40;99.90;;;;;;5067841;28;20191;-87
2023/10/12 09:58:51;;;;;;;10.32;4.20;;;24.50;99.90;;;;;;5062046;28;20254;-87
2023/10/12 10:01:49;;;;;;;8.95;3.50;;;24.50;99.90;;;;;;5075639;28;20219;-87
2023/10/12 10:04:34;;;;;;;8.40;2.78;;;24.50;99.90;;;;;;5060050;28;20196;-87
2023/10/12 10:07:17;;;;;;;6.13;1.75;;;24.40;99.90;;;;;;5053475;28;20205;-86
2023/10/12 10:09:52;;;;;;;2.97;1.70;;;24.30;99.90;;;;;;5071833;28;20211;-85
2023/10/12 10:12:27;;;;;;;8.40;2.30;;;24.20;99.90;;;;;;5056671;28;20268;-87
2023/10/12 10:15:10;;;;;;;4.95;1.75;;;24.10;99.90;;;;;;5072103;28;20198;-86
2023/10/12 10:17:50;;;;;;;8.25;1.90;;;23.90;99.90;;;;;;5088416;28;20442;-85
2023/10/12 10:23:19;;;;;;;5.35;2.40;;;23.80;99.90;;;;;;5057621;28;20248;-85
2023/10/12 10:26:16;;;;;;;4.75;2.03;;;23.70;99.90;;;;;;5072510;28;20257;-86
2023/10/12 10:28:55;;;;;;;2.65;1.60;;;23.30;99.90;;;;;;5072081;28;20249;-88
2023/10/12 10:31:41;;;;;;;5.03;1.77;;;23.10;99.90;;;;;;5065345;28;20193;-87
2023/10/12 10:34:14;;;;;;;2.70;1.30;;;22.80;99.90;;;;;;5059893;28;20271;-85
2023/10/12 10:36:53;;;;;;;3.88;1.35;;;22.60;99.90;;;;;;5075182;28;20275;-84
2023/10/12 10:39:32;;;;;;;3.47;1.40;;;22.50;99.90;;;;;;5067174;28;20219;-86
2023/10/12 10:42:04;;;;;;;4.18;1.50;;;22.50;99.90;;;;;;5097602;28;20205;-87
2023/10/12 10:44:52;;;;;;;4.50;1.40;;;22.50;99.90;;;;;;5066408;28;20200;-86
2023/10/12 10:47:28;;;;;;;3.38;1.50;;;22.40;99.90;;;;;;5088757;28;20207;-87
2023/10/12 10:50:15;;;;;;;6.70;1.40;;;22.40;99.90;;;;;;5070690;28;20222;-87
2023/10/12 10:52:59;;;;;;;7.25;1.42;;;22.30;99.90;;;;;;5069780;28;20238;-85
2023/10/12 10:55:39;;;;;;;2.38;1.40;;;22.10;99.90;;;;;;5083015;28;20188;-88
2023/10/12 10:58:17;;;;;;;6.28;1.30;;;22.00;99.90;;;;;;5086853;28;20230;-85
2023/10/12 11:01:05;;;;;;;4.38;0.93;;;21.80;99.90;;;;;;5085262;28;20238;-87
2023/10/12 11:13:00;;;;;;;1.88;0.70;;;21.20;99.00;;;;;;5062680;28;20224;-85
2023/10/12 11:18:45;;;;;;;3.20;0.70;;;20.80;97.60;;;;;;5073616;28;20254;-86
2023/10/12 11:21:57;;;;;;;0.75;0.68;;;20.90;97.20;;;;;;5085582;28;20207;-87
2023/10/12 11:24:49;;;;;;;2.45;0.60;;;20.90;97.60;;;;;;5086842;28;20180;-86
2023/10/12 11:31:14;;;;;;;1.15;0.70;;;21.00;96.10;;;;;;5084529;28;20248;-86
2023/10/12 11:34:06;;;;;;;1.95;0.75;;;20.80;95.10;;;;;;5075991;28;20176;-86
2023/10/12 11:40:15;;;;;;;0.90;0.50;;;20.60;95.60;;;;;;5112635;28;20240;-86
2023/10/12 11:46:21;;;;;;;0.73;0.50;;;20.20;93.70;;;;;;5069700;28;20188;-87
2023/10/12 11:49:32;;;;;;;1.25;0.50;;;20.20;93.70;;;;;;5069079;28;20224;-87
2023/10/12 11:55:41;;;;;;;1.00;0.50;;;20.10;93.30;;;;;;5068003;28;20252;-87
2023/10/12 12:01:51;;;;;;;0.93;0.47;;;20.00;92.20;;;;;;5066622;28;20200;-86
2023/10/12 12:04:31;;;;;;;1.08;0.50;;;19.90;91.30;;;;;;5084673;28;20200;-87
2023/10/12 12:07:42;;;;;;;1.30;0.70;;;19.80;91.30;;;;;;5085000;28;20200;-86
2023/10/12 12:10:15;;;;;;;2.08;0.73;;;19.60;91.50;;;;;;5084592;28;20303;-86
2023/10/12 12:12:48;;;;;;;2.13;0.60;;;19.70;91.40;;;;;;5083570;28;20211;-86
2023/10/12 12:18:14;;;;;;;1.20;0.63;;;19.60;90.40;;;;;;5090840;28;20283;-86
2023/10/12 12:20:48;;;;;;;0.68;0.50;;;19.50;90.50;;;;;;5084627;28;20200;-85
2023/10/12 12:23:26;;;;;;;1.60;0.57;;;19.70;90.30;;;;;;5069758;28;20200;-87
2023/10/12 12:26:09;;;;;;;0.47;0.43;;;19.60;90.10;;;;;;5104805;28;20599;-86
2023/10/12 12:29:03;;;;;;;0.50;0.30;;;19.60;89.30;;;;;;5094663;28;20268;-85
2023/10/12 12:32:08;;;;;;;0.50;0.45;;;19.40;90.30;;;;;;5087077;28;20199;-86
2023/10/12 12:37:29;;;;;;;1.00;0.60;;;19.30;89.50;;;;;;5092470;28;20204;-83
2023/10/12 12:40:27;;;;;;;0.90;0.30;;;19.30;90.00;;;;;;5087584;28;20207;-86
2023/10/12 12:43:03;;;;;;;1.75;0.52;;;19.30;91.50;;;;;;5089777;28;20196;-86
2023/10/12 12:45:38;;;;;;;0.98;0.50;;;19.40;90.80;;;;;;5084503;28;20199;-85
2023/10/12 12:48:31;;;;;;;0.73;0.45;;;19.50;89.90;;;;;;5079473;28;20203;-85
2023/10/12 12:51:17;;;;;;;0.85;0.50;;;19.20;88.50;;;;;;5070769;28;20667;-86
2023/10/12 12:53:55;;;;;;;2.72;0.43;;;19.20;89.80;;;;;;5069977;28;20201;-85
2023/10/12 12:56:36;;;;;;;2.58;0.52;;;18.80;91.60;;;;;;5070044;28;20230;-85
2023/10/12 12:59:20;;;;;;;1.95;0.50;;;18.60;96.00;;;;;;5083450;28;20247;-84
2023/10/12 13:02:11;;;;;;;0.82;0.60;;;18.10;99.90;;;;;;5076527;28;20198;-87
2023/10/12 13:04:50;;;;;;;1.45;0.40;;;17.50;99.90;;;;;;5082216;28;20192;-85
2023/10/12 13:07:33;;;;;;;1.77;0.73;;;17.40;99.90;;;;;;5077577;28;20200;-85
2023/10/12 13:10:11;;;;;;;0.77;0.40;;;17.20;99.90;;;;;;5084057;28;20207;-84
2023/10/12 13:12:43;;;;;;;2.75;0.80;;;17.00;99.90;;;;;;5033254;28;20177;-86
2023/10/12 13:15:23;;;;;;;1.13;0.60;;;16.80;99.90;;;;;;5042123;28;20170;-86
2023/10/12 13:18:05;;;;;;;2.08;0.60;;;16.60;99.90;;;;;;5043144;28;20197;-85
2023/10/12 13:20:40;;;;;;;1.25;0.57;;;16.30;99.90;;;;;;5042417;28;20213;-85
2023/10/12 13:23:35;;;;;;;1.02;0.50;;;16.30;99.90;;;;;;5043591;28;20284;-84
2023/10/12 13:26:14;;;;;;;1.45;0.50;;;16.50;99.90;;;;;;5046550;28;20172;-86
2023/10/12 13:28:56;;;;;;;1.42;0.50;;;16.50;99.90;;;;;;5030828;28;20237;-87
2023/10/12 13:31:40;;;;;;;0.80;0.40;;;16.50;99.90;;;;;;5024266;28;20198;-86
2023/10/12 13:34:33;;;;;;;1.73;0.77;;;16.30;99.90;;;;;;5041899;28;20197;-86
2023/10/12 13:37:23;;;;;;;1.25;0.40;;;16.30;99.90;;;;;;5048415;28;20209;-87
2023/10/12 13:39:53;;;;;;;1.73;0.70;;;16.30;99.90;;;;;;5037605;28;20217;-85
2023/10/12 13:42:28;;;;;;;3.42;0.70;;;16.50;99.90;;;;;;5043297;28;20194;-86
2023/10/12 13:45:01;;;;;;;1.05;0.60;;;16.60;99.90;;;;;;5033077;28;20196;-86
2023/10/12 13:47:32;;;;;;;1.17;0.50;;;16.60;99.90;;;;;;5031849;28;20201;-84
2023/10/12 13:50:05;;;;;;;1.25;0.50;;;16.70;99.90;;;;;;5032225;28;20716;-86
2023/10/12 13:52:40;;;;;;;2.83;0.60;;;16.80;99.90;;;;;;5023417;28;20198;-86
2023/10/12 13:55:13;;;;;;;2.45;0.52;;;16.70;99.90;;;;;;5038982;28;20960;-86
2023/10/12 13:57:55;;;;;;;0.95;0.50;;;16.70;99.90;;;;;;5049350;28;20207;-86
2023/10/12 14:00:27;;;;;;;0.80;0.70;;;16.70;99.90;;;;;;5015278;28;20231;-85
2023/10/12 14:02:59;;;;;;;1.60;0.60;;;16.70;99.90;;;;;;5032895;28;20656;-85
2023/10/12 14:05:30;;;;;;;1.50;0.50;;;16.60;99.90;;;;;;5028065;28;20198;-86
2023/10/12 14:08:03;;;;;;;1.98;0.80;;;16.70;99.90;;;;;;5015148;28;20618;-86
2023/10/12 14:10:35;;;;;;;2.08;0.80;;;16.60;99.90;;;;;;5027008;28;20594;-85
2023/10/12 14:13:07;;;;;;;1.83;0.65;;;16.60;99.90;;;;;;5070223;28;20252;-85
2023/10/12 14:15:39;;;;;;;2.67;0.70;;;16.60;99.90;;;;;;5064026;28;20192;-85
2023/10/12 14:18:11;;;;;;;1.83;0.60;;;16.60;99.90;;;;;;5069845;28;20201;-86
2023/10/12 14:20:42;;;;;;;0.68;0.50;;;16.50;99.90;;;;;;5067516;28;20223;-86
2023/10/12 14:23:17;;;;;;;1.58;0.57;;;16.50;99.90;;;;;;5069503;28;20245;-86
2023/10/12 14:25:51;;;;;;;0.57;0.40;;;16.60;99.90;;;;;;5062248;28;20199;-87
2023/10/12 14:28:23;;;;;;;1.52;0.70;;;16.50;99.90;;;;;;5078757;28;20255;-86
2023/10/12 14:30:55;;;;;;;1.38;0.60;;;16.50;99.90;;;;;;5081382;28;20219;-87
2023/10/12 14:33:30;;;;;;;0.52;0.50;;;16.50;99.90;;;;;;5078829;28;20211;-86
2023/10/12 14:36:05;;;;;;;1.50;0.70;;;16.40;99.90;;;;;;5086380;28;20199;-86
2023/10/12 14:38:41;;;;;;;0.82;0.55;;;16.50;99.90;;;;;;5083956;28;20286;-85
2023/10/12 14:41:16;;;;;;;1.70;0.70;;;16.60;99.90;;;;;;5086783;28;20199;-85
2023/10/12 14:43:49;;;;;;;1.33;0.68;;;16.70;99.90;;;;;;5069460;28;20214;-86
2023/10/12 14:46:23;;;;;;;1.48;0.60;;;16.70;99.90;;;;;;5082216;28;20278;-85
2023/10/12 14:48:54;;;;;;;1.13;0.60;;;16.90;99.90;;;;;;5080162;28;20207;-84
2023/10/12 14:51:26;;;;;;;2.65;0.60;;;16.90;99.90;;;;;;5065129;28;20203;-85